sensor_id;sensor_type;location;lat;lon;timestamp;pressure;altitude;pressure_sealevel;temperature;humidity
49943;BME280;36011;53.362;58.948;2023-06-10T00:01:18;97053.00;;;11.01;59.42
49943;BME280;36011;53.362;58.948;2023-06-10T00:04:22;97046.28;;;10.97;59.64
49943;BME280;36011;53.362;58.948;2023-06-10T00:07:23;97047.50;;;10.91;59.75
49943;BME280;36011;53.362;58.948;2023-06-10T00:10:30;97048.13;;;10.95;59.78
49943;BME280;36011;53.362;58.948;2023-06-10T00:13:34;97047.09;;;10.97;59.66
49943;BME280;36011;53.362;58.948;2023-06-10T00:16:35;97047.41;;;10.93;59.38
49943;BME280;36011;53.362;58.948;2023-06-10T00:19:39;97048.63;;;11.01;59.46
49943;BME280;36011;53.362;58.948;2023-06-10T00:22:42;97053.50;;;11.08;59.29
49943;BME280;36011;53.362;58.948;2023-06-10T00:25:46;97057.31;;;11.16;59.14
49943;BME280;36011;53.362;58.948;2023-06-10T00:28:50;97053.72;;;11.17;59.22
49943;BME280;36011;53.362;58.948;2023-06-10T00:31:57;97053.31;;;11.23;59.18
49943;BME280;36011;53.362;58.948;2023-06-10T00:35:01;97059.00;;;11.17;58.50
49943;BME280;36011;53.362;58.948;2023-06-10T00:38:06;97055.44;;;11.18;59.18
49943;BME280;36011;53.362;58.948;2023-06-10T00:41:08;97044.78;;;11.20;59.12
49943;BME280;36011;53.362;58.948;2023-06-10T00:44:11;97041.31;;;11.19;58.45
49943;BME280;36011;53.362;58.948;2023-06-10T00:47:13;97039.22;;;11.24;59.09
49943;BME280;36011;53.362;58.948;2023-06-10T00:50:17;97043.06;;;11.33;59.08
49943;BME280;36011;53.362;58.948;2023-06-10T00:53:19;97041.25;;;11.34;59.11
49943;BME280;36011;53.362;58.948;2023-06-10T00:56:22;97034.66;;;11.41;59.32
49943;BME280;36011;53.362;58.948;2023-06-10T00:59:23;97043.09;;;11.46;59.04
49943;BME280;36011;53.362;58.948;2023-06-10T01:02:27;97045.84;;;11.57;58.97
49943;BME280;36011;53.362;58.948;2023-06-10T01:05:28;97036.06;;;11.59;58.81
49943;BME280;36011;53.362;58.948;2023-06-10T01:08:43;97046.75;;;11.71;58.92
49943;BME280;36011;53.362;58.948;2023-06-10T01:11:58;97057.84;;;11.76;58.72
49943;BME280;36011;53.362;58.948;2023-06-10T01:15:06;97051.38;;;11.80;58.69
49943;BME280;36011;53.362;58.948;2023-06-10T01:18:11;97063.25;;;11.87;58.42
49943;BME280;36011;53.362;58.948;2023-06-10T01:21:23;97064.13;;;12.00;58.49
49943;BME280;36011;53.362;58.948;2023-06-10T01:24:28;97069.00;;;12.06;58.24
49943;BME280;36011;53.362;58.948;2023-06-10T01:27:33;97062.47;;;12.12;58.68
49943;BME280;36011;53.362;58.948;2023-06-10T01:30:46;97067.94;;;12.22;58.42
49943;BME280;36011;53.362;58.948;2023-06-10T01:33:54;97067.22;;;12.32;58.42
49943;BME280;36011;53.362;58.948;2023-06-10T01:36:59;97075.31;;;12.42;58.42
49943;BME280;36011;53.362;58.948;2023-06-10T01:40:04;97065.28;;;12.47;58.25
49943;BME280;36011;53.362;58.948;2023-06-10T01:43:11;97059.50;;;12.55;58.26
49943;BME280;36011;53.362;58.948;2023-06-10T01:46:15;97073.63;;;12.67;58.17
49943;BME280;36011;53.362;58.948;2023-06-10T01:49:22;97067.91;;;12.73;58.10
49943;BME280;36011;53.362;58.948;2023-06-10T01:52:27;97073.50;;;12.81;58.13
49943;BME280;36011;53.362;58.948;2023-06-10T01:55:31;97074.84;;;12.87;58.44
49943;BME280;36011;53.362;58.948;2023-06-10T01:58:35;97084.88;;;12.94;58.41
49943;BME280;36011;53.362;58.948;2023-06-10T02:01:36;97077.81;;;12.95;57.90
49943;BME280;36011;53.362;58.948;2023-06-10T02:04:37;97073.88;;;13.00;58.05
49943;BME280;36011;53.362;58.948;2023-06-10T02:07:43;97083.03;;;13.08;58.31
49943;BME280;36011;53.362;58.948;2023-06-10T02:10:47;97082.41;;;13.17;58.47
49943;BME280;36011;53.362;58.948;2023-06-10T02:13:48;97081.75;;;13.26;58.16
49943;BME280;36011;53.362;58.948;2023-06-10T02:16:49;97080.88;;;13.38;58.30
49943;BME280;36011;53.362;58.948;2023-06-10T02:19:55;97089.81;;;13.48;58.15
49943;BME280;36011;53.362;58.948;2023-06-10T02:23:00;97099.50;;;13.61;58.30
49943;BME280;36011;53.362;58.948;2023-06-10T02:26:04;97099.03;;;13.67;57.92
49943;BME280;36011;53.362;58.948;2023-06-10T02:29:08;97094.25;;;13.72;57.95
49943;BME280;36011;53.362;58.948;2023-06-10T02:32:12;97091.28;;;13.77;57.80
49943;BME280;36011;53.362;58.948;2023-06-10T02:35:14;97102.00;;;13.86;57.78
49943;BME280;36011;53.362;58.948;2023-06-10T02:38:20;97108.06;;;14.00;57.47
49943;BME280;36011;53.362;58.948;2023-06-10T02:41:24;97104.63;;;14.10;57.24
49943;BME280;36011;53.362;58.948;2023-06-10T02:44:28;97110.75;;;14.11;57.15
49943;BME280;36011;53.362;58.948;2023-06-10T02:47:32;97105.50;;;14.22;56.85
49943;BME280;36011;53.362;58.948;2023-06-10T02:50:33;97099.63;;;14.30;56.74
49943;BME280;36011;53.362;58.948;2023-06-10T02:53:37;97105.56;;;14.45;56.12
49943;BME280;36011;53.362;58.948;2023-06-10T02:56:38;97103.91;;;14.55;55.97
49943;BME280;36011;53.362;58.948;2023-06-10T02:59:42;97116.69;;;14.61;55.67
49943;BME280;36011;53.362;58.948;2023-06-10T03:02:44;97108.25;;;14.67;55.48
49943;BME280;36011;53.362;58.948;2023-06-10T03:05:47;97115.97;;;14.81;55.13
49943;BME280;36011;53.362;58.948;2023-06-10T03:08:51;97115.00;;;14.94;54.99
49943;BME280;36011;53.362;58.948;2023-06-10T03:11:52;97122.72;;;15.08;54.02
49943;BME280;36011;53.362;58.948;2023-06-10T03:14:53;97117.66;;;15.16;53.68
49943;BME280;36011;53.362;58.948;2023-06-10T03:17:57;97122.09;;;15.27;53.25
49943;BME280;36011;53.362;58.948;2023-06-10T03:21:01;97106.91;;;15.40;53.25
49943;BME280;36011;53.362;58.948;2023-06-10T03:24:04;97119.16;;;15.53;53.07
49943;BME280;36011;53.362;58.948;2023-06-10T03:27:08;97131.31;;;15.78;52.63
49943;BME280;36011;53.362;58.948;2023-06-10T03:30:11;97116.13;;;15.80;52.39
49943;BME280;36011;53.362;58.948;2023-06-10T03:33:13;97120.25;;;15.93;51.98
49943;BME280;36011;53.362;58.948;2023-06-10T03:36:14;97117.34;;;16.08;51.66
49943;BME280;36011;53.362;58.948;2023-06-10T03:39:16;97115.50;;;16.29;50.52
49943;BME280;36011;53.362;58.948;2023-06-10T03:42:17;97112.88;;;16.50;49.69
49943;BME280;36011;53.362;58.948;2023-06-10T03:45:18;97106.59;;;16.51;49.62
49943;BME280;36011;53.362;58.948;2023-06-10T03:48:22;97119.66;;;16.64;49.03
49943;BME280;36011;53.362;58.948;2023-06-10T03:51:26;97114.53;;;16.93;46.92
49943;BME280;36011;53.362;58.948;2023-06-10T03:54:29;97124.09;;;17.05;46.44
49943;BME280;36011;53.362;58.948;2023-06-10T03:57:34;97113.19;;;17.09;46.42
49943;BME280;36011;53.362;58.948;2023-06-10T04:00:36;97117.69;;;17.18;46.08
49943;BME280;36011;53.362;58.948;2023-06-10T04:03:47;97102.88;;;17.25;44.56
49943;BME280;36011;53.362;58.948;2023-06-10T04:06:52;97116.97;;;17.56;42.73
49943;BME280;36011;53.362;58.948;2023-06-10T04:09:53;97125.66;;;17.68;42.61
49943;BME280;36011;53.362;58.948;2023-06-10T04:12:58;97129.38;;;17.86;40.78
49943;BME280;36011;53.362;58.948;2023-06-10T04:16:02;97125.88;;;17.95;39.70
49943;BME280;36011;53.362;58.948;2023-06-10T04:19:08;97120.41;;;17.97;39.81
49943;BME280;36011;53.362;58.948;2023-06-10T04:22:12;97131.63;;;18.10;40.03
49943;BME280;36011;53.362;58.948;2023-06-10T04:25:14;97123.75;;;18.28;39.46
49943;BME280;36011;53.362;58.948;2023-06-10T04:28:15;97130.06;;;18.37;39.24
49943;BME280;36011;53.362;58.948;2023-06-10T04:31:16;97123.44;;;18.51;38.21
49943;BME280;36011;53.362;58.948;2023-06-10T04:34:20;97133.53;;;18.57;38.14
49943;BME280;36011;53.362;58.948;2023-06-10T04:37:22;97135.91;;;18.79;37.02
49943;BME280;36011;53.362;58.948;2023-06-10T04:40:23;97145.56;;;18.90;36.42
49943;BME280;36011;53.362;58.948;2023-06-10T04:43:26;97140.84;;;19.49;36.05
49943;BME280;36011;53.362;58.948;2023-06-10T04:46:31;97143.28;;;21.72;32.16
49943;BME280;36011;53.362;58.948;2023-06-10T04:49:33;97142.06;;;23.94;27.25
49943;BME280;36011;53.362;58.948;2023-06-10T04:52:34;97141.25;;;25.89;24.39
49943;BME280;36011;53.362;58.948;2023-06-10T04:55:35;97148.38;;;27.67;22.10
49943;BME280;36011;53.362;58.948;2023-06-10T04:58:43;97149.94;;;29.38;20.85
49943;BME280;36011;53.362;58.948;2023-06-10T05:01:47;97147.72;;;31.20;19.21
49943;BME280;36011;53.362;58.948;2023-06-10T05:04:52;97153.41;;;33.13;17.48
49943;BME280;36011;53.362;58.948;2023-06-10T05:07:59;97153.13;;;35.16;16.16
49943;BME280;36011;53.362;58.948;2023-06-10T05:11:02;97151.97;;;36.88;14.90
49943;BME280;36011;53.362;58.948;2023-06-10T05:14:06;97141.91;;;38.41;13.73
49943;BME280;36011;53.362;58.948;2023-06-10T05:17:12;97150.75;;;39.46;13.12
49943;BME280;36011;53.362;58.948;2023-06-10T05:20:19;97150.94;;;40.45;10.78
49943;BME280;36011;53.362;58.948;2023-06-10T05:23:23;97149.13;;;40.75;10.44
49943;BME280;36011;53.362;58.948;2023-06-10T05:26:24;97157.31;;;43.20;10.68
49943;BME280;36011;53.362;58.948;2023-06-10T05:29:26;97158.44;;;43.66;9.58
49943;BME280;36011;53.362;58.948;2023-06-10T05:32:32;97156.53;;;43.47;9.46
49943;BME280;36011;53.362;58.948;2023-06-10T05:35:36;97162.97;;;44.03;9.31
49943;BME280;36011;53.362;58.948;2023-06-10T05:38:42;97159.69;;;44.01;9.13
49943;BME280;36011;53.362;58.948;2023-06-10T05:41:46;97147.34;;;43.66;9.06
49943;BME280;36011;53.362;58.948;2023-06-10T05:44:47;97144.97;;;43.59;9.35
49943;BME280;36011;53.362;58.948;2023-06-10T05:47:51;97143.44;;;43.81;9.08
49943;BME280;36011;53.362;58.948;2023-06-10T05:50:53;97151.84;;;45.03;8.60
49943;BME280;36011;53.362;58.948;2023-06-10T05:54:02;97152.97;;;44.80;8.45
49943;BME280;36011;53.362;58.948;2023-06-10T05:57:04;97146.31;;;43.76;8.71
49943;BME280;36011;53.362;58.948;2023-06-10T06:00:07;97148.78;;;43.77;8.84
49943;BME280;36011;53.362;58.948;2023-06-10T06:03:09;97144.81;;;44.47;8.56
49943;BME280;36011;53.362;58.948;2023-06-10T06:06:16;97144.38;;;44.68;8.29
49943;BME280;36011;53.362;58.948;2023-06-10T06:09:20;97149.25;;;45.61;7.90
49943;BME280;36011;53.362;58.948;2023-06-10T06:12:26;97137.25;;;44.39;8.28
49943;BME280;36011;53.362;58.948;2023-06-10T06:15:30;97132.25;;;44.13;8.72
49943;BME280;36011;53.362;58.948;2023-06-10T06:18:37;97135.03;;;43.58;8.76
49943;BME280;36011;53.362;58.948;2023-06-10T06:21:40;97139.97;;;43.15;9.13
49943;BME280;36011;53.362;58.948;2023-06-10T06:24:45;97127.22;;;43.60;9.00
49943;BME280;36011;53.362;58.948;2023-06-10T06:27:50;97136.84;;;43.90;8.97
49943;BME280;36011;53.362;58.948;2023-06-10T06:30:54;97135.28;;;44.76;8.52
49943;BME280;36011;53.362;58.948;2023-06-10T06:34:00;97144.63;;;45.47;8.14
49943;BME280;36011;53.362;58.948;2023-06-10T06:37:02;97124.69;;;46.77;7.38
49943;BME280;36011;53.362;58.948;2023-06-10T06:40:04;97127.13;;;47.14;7.46
49943;BME280;36011;53.362;58.948;2023-06-10T06:43:09;97128.59;;;47.11;7.47
49943;BME280;36011;53.362;58.948;2023-06-10T06:46:13;97130.06;;;46.65;7.65
49943;BME280;36011;53.362;58.948;2023-06-10T06:49:14;97133.31;;;45.75;7.98
49943;BME280;36011;53.362;58.948;2023-06-10T06:52:20;97128.50;;;44.82;8.71
49943;BME280;36011;53.362;58.948;2023-06-10T06:55:23;97124.78;;;44.87;8.49
49943;BME280;36011;53.362;58.948;2023-06-10T06:58:26;97124.91;;;44.45;8.57
49943;BME280;36011;53.362;58.948;2023-06-10T07:01:30;97111.41;;;44.02;8.94
49943;BME280;36011;53.362;58.948;2023-06-10T07:04:34;97119.03;;;43.83;9.60
49943;BME280;36011;53.362;58.948;2023-06-10T07:07:40;97117.47;;;44.91;8.63
49943;BME280;36011;53.362;58.948;2023-06-10T07:10:45;97114.28;;;45.60;8.42
49943;BME280;36011;53.362;58.948;2023-06-10T07:13:51;97115.34;;;45.81;8.61
49943;BME280;36011;53.362;58.948;2023-06-10T07:16:59;97125.09;;;45.08;8.50
49943;BME280;36011;53.362;58.948;2023-06-10T07:20:03;97117.44;;;44.68;8.87
49943;BME280;36011;53.362;58.948;2023-06-10T07:23:05;97121.63;;;44.43;9.18
49943;BME280;36011;53.362;58.948;2023-06-10T07:26:10;97115.69;;;45.17;8.52
49943;BME280;36011;53.362;58.948;2023-06-10T07:29:16;97103.47;;;42.18;10.15
49943;BME280;36011;53.362;58.948;2023-06-10T07:32:20;97104.56;;;38.56;12.73
49943;BME280;36011;53.362;58.948;2023-06-10T07:35:26;97096.81;;;39.40;11.95
49943;BME280;36011;53.362;58.948;2023-06-10T07:38:29;97096.00;;;40.93;11.37
49943;BME280;36011;53.362;58.948;2023-06-10T07:41:33;97091.78;;;41.30;10.84
49943;BME280;36011;53.362;58.948;2023-06-10T07:44:40;97086.63;;;40.94;11.24
49943;BME280;36011;53.362;58.948;2023-06-10T07:47:43;97090.63;;;42.27;10.85
49943;BME280;36011;53.362;58.948;2023-06-10T07:50:49;97082.25;;;42.70;10.25
49943;BME280;36011;53.362;58.948;2023-06-10T07:53:56;97082.66;;;43.84;9.83
49943;BME280;36011;53.362;58.948;2023-06-10T07:56:59;97092.22;;;45.32;9.03
49943;BME280;36011;53.362;58.948;2023-06-10T08:00:03;97083.69;;;43.88;9.81
49943;BME280;36011;53.362;58.948;2023-06-10T08:03:07;97077.09;;;43.15;10.08
49943;BME280;36011;53.362;58.948;2023-06-10T08:06:09;97080.00;;;43.38;9.93
49943;BME280;36011;53.362;58.948;2023-06-10T08:09:15;97070.97;;;43.32;9.95
49943;BME280;36011;53.362;58.948;2023-06-10T08:12:19;97061.91;;;44.09;9.35
49943;BME280;36011;53.362;58.948;2023-06-10T08:15:26;97057.25;;;42.43;10.43
49943;BME280;36011;53.362;58.948;2023-06-10T08:18:32;97052.78;;;38.17;13.34
49943;BME280;36011;53.362;58.948;2023-06-10T08:21:33;97047.66;;;36.13;15.21
49943;BME280;36011;53.362;58.948;2023-06-10T08:24:35;97041.78;;;37.96;13.65
49943;BME280;36011;53.362;58.948;2023-06-10T08:27:36;97047.09;;;38.59;13.76
49943;BME280;36011;53.362;58.948;2023-06-10T08:30:39;97041.22;;;36.03;15.29
49943;BME280;36011;53.362;58.948;2023-06-10T08:33:46;97047.69;;;35.25;16.10
49943;BME280;36011;53.362;58.948;2023-06-10T08:36:49;97032.81;;;34.03;16.92
49943;BME280;36011;53.362;58.948;2023-06-10T08:40:00;97030.28;;;33.56;17.46
49943;BME280;36011;53.362;58.948;2023-06-10T08:43:13;97039.09;;;32.52;17.89
49943;BME280;36011;53.362;58.948;2023-06-10T08:46:19;97033.47;;;31.45;18.93
49943;BME280;36011;53.362;58.948;2023-06-10T08:49:23;97041.22;;;31.04;19.08
49943;BME280;36011;53.362;58.948;2023-06-10T08:52:33;97041.06;;;30.74;19.51
49943;BME280;36011;53.362;58.948;2023-06-10T08:55:42;97041.22;;;31.04;19.62
49943;BME280;36011;53.362;58.948;2023-06-10T08:58:46;97025.31;;;31.26;19.08
49943;BME280;36011;53.362;58.948;2023-06-10T09:01:56;97034.19;;;31.33;19.60
49943;BME280;36011;53.362;58.948;2023-06-10T09:05:02;97033.06;;;32.97;18.37
49943;BME280;36011;53.362;58.948;2023-06-10T09:08:07;97026.38;;;33.40;17.98
49943;BME280;36011;53.362;58.948;2023-06-10T09:11:15;97035.63;;;34.20;17.09
49943;BME280;36011;53.362;58.948;2023-06-10T09:14:19;97029.34;;;33.79;17.17
49943;BME280;36011;53.362;58.948;2023-06-10T09:17:23;97024.53;;;32.82;18.00
49943;BME280;36011;53.362;58.948;2023-06-10T09:20:25;97029.88;;;31.51;19.54
49943;BME280;36011;53.362;58.948;2023-06-10T09:23:30;97027.03;;;30.59;20.09
49943;BME280;36011;53.362;58.948;2023-06-10T09:26:36;97027.13;;;30.46;20.92
49943;BME280;36011;53.362;58.948;2023-06-10T09:29:52;97022.50;;;30.53;20.79
49943;BME280;36011;53.362;58.948;2023-06-10T09:32:56;97023.41;;;31.27;20.79
49943;BME280;36011;53.362;58.948;2023-06-10T09:36:03;97027.00;;;33.71;18.24
49943;BME280;36011;53.362;58.948;2023-06-10T09:39:21;97011.19;;;33.44;18.12
49943;BME280;36011;53.362;58.948;2023-06-10T09:42:25;97007.25;;;31.81;18.98
49943;BME280;36011;53.362;58.948;2023-06-10T09:45:32;97007.00;;;30.78;19.78
49943;BME280;36011;53.362;58.948;2023-06-10T09:48:44;97016.00;;;32.90;18.61
49943;BME280;36011;53.362;58.948;2023-06-10T09:51:53;97014.84;;;35.25;17.11
49943;BME280;36011;53.362;58.948;2023-06-10T09:55:01;97021.34;;;35.63;16.89
49943;BME280;36011;53.362;58.948;2023-06-10T09:58:07;97016.38;;;35.38;16.12
49943;BME280;36011;53.362;58.948;2023-06-10T10:01:12;97015.00;;;36.39;15.56
49943;BME280;36011;53.362;58.948;2023-06-10T10:04:25;97026.03;;;36.44;15.53
49943;BME280;36011;53.362;58.948;2023-06-10T10:07:26;97018.72;;;34.91;16.61
49943;BME280;36011;53.362;58.948;2023-06-10T10:10:28;97004.97;;;34.85;16.80
49943;BME280;36011;53.362;58.948;2023-06-10T10:13:33;97007.91;;;35.01;16.60
49943;BME280;36011;53.362;58.948;2023-06-10T10:16:39;97000.44;;;33.38;18.04
49943;BME280;36011;53.362;58.948;2023-06-10T10:19:50;97006.88;;;32.07;19.23
49943;BME280;36011;53.362;58.948;2023-06-10T10:22:56;96993.59;;;31.39;20.00
49943;BME280;36011;53.362;58.948;2023-06-10T10:26:04;96998.97;;;31.08;20.96
49943;BME280;36011;53.362;58.948;2023-06-10T10:29:14;96993.09;;;30.68;21.09
49943;BME280;36011;53.362;58.948;2023-06-10T10:32:38;96991.28;;;30.37;21.17
49943;BME280;36011;53.362;58.948;2023-06-10T10:35:41;96986.66;;;29.87;22.09
49943;BME280;36011;53.362;58.948;2023-06-10T10:38:49;97006.59;;;29.68;22.08
49943;BME280;36011;53.362;58.948;2023-06-10T10:41:50;96999.72;;;29.59;22.13
49943;BME280;36011;53.362;58.948;2023-06-10T10:44:53;97001.22;;;29.48;22.32
49943;BME280;36011;53.362;58.948;2023-06-10T10:47:55;97008.63;;;29.27;23.02
49943;BME280;36011;53.362;58.948;2023-06-10T10:50:59;97000.06;;;29.30;22.79
49943;BME280;36011;53.362;58.948;2023-06-10T10:54:13;97000.28;;;29.29;22.65
49943;BME280;36011;53.362;58.948;2023-06-10T10:57:20;97000.94;;;29.18;23.43
49943;BME280;36011;53.362;58.948;2023-06-10T11:00:37;96998.44;;;29.23;22.90
49943;BME280;36011;53.362;58.948;2023-06-10T11:03:44;96994.06;;;29.22;22.92
49943;BME280;36011;53.362;58.948;2023-06-10T11:06:54;96993.19;;;29.28;22.60
49943;BME280;36011;53.362;58.948;2023-06-10T11:10:11;96993.69;;;28.98;23.09
49943;BME280;36011;53.362;58.948;2023-06-10T11:13:18;96992.91;;;29.88;22.42
49943;BME280;36011;53.362;58.948;2023-06-10T11:16:20;96989.22;;;31.19;21.40
49943;BME280;36011;53.362;58.948;2023-06-10T11:19:50;96996.84;;;31.77;20.54
49943;BME280;36011;53.362;58.948;2023-06-10T11:22:58;96992.22;;;31.29;20.56
49943;BME280;36011;53.362;58.948;2023-06-10T11:29:39;96981.81;;;30.90;21.20
49943;BME280;36011;53.362;58.948;2023-06-10T11:32:58;96968.84;;;31.10;20.79
49943;BME280;36011;53.362;58.948;2023-06-10T11:36:03;96974.72;;;31.25;20.60
49943;BME280;36011;53.362;58.948;2023-06-10T11:39:10;96965.03;;;30.74;21.27
49943;BME280;36011;53.362;58.948;2023-06-10T11:42:16;96955.53;;;29.51;22.27
49943;BME280;36011;53.362;58.948;2023-06-10T11:45:18;96956.06;;;29.28;22.34
49943;BME280;36011;53.362;58.948;2023-06-10T11:48:23;96951.28;;;29.30;22.58
49943;BME280;36011;53.362;58.948;2023-06-10T11:51:31;96962.03;;;29.05;22.93
49943;BME280;36011;53.362;58.948;2023-06-10T11:54:33;96954.97;;;28.91;23.09
49943;BME280;36011;53.362;58.948;2023-06-10T11:57:37;96956.63;;;28.92;23.05
49943;BME280;36011;53.362;58.948;2023-06-10T12:00:46;96945.59;;;28.87;22.98
49943;BME280;36011;53.362;58.948;2023-06-10T12:03:50;96944.56;;;28.88;23.05
49943;BME280;36011;53.362;58.948;2023-06-10T12:07:00;96944.84;;;29.18;22.52
49943;BME280;36011;53.362;58.948;2023-06-10T12:10:04;96941.59;;;29.03;22.63
49943;BME280;36011;53.362;58.948;2023-06-10T12:13:11;96951.47;;;29.36;22.92
49943;BME280;36011;53.362;58.948;2023-06-10T12:16:15;96939.88;;;29.22;22.68
49943;BME280;36011;53.362;58.948;2023-06-10T12:19:20;96945.19;;;29.35;22.74
49943;BME280;36011;53.362;58.948;2023-06-10T12:22:21;96940.66;;;29.61;22.30
49943;BME280;36011;53.362;58.948;2023-06-10T12:25:28;96929.38;;;29.32;22.41
49943;BME280;36011;53.362;58.948;2023-06-10T12:28:32;96921.25;;;29.32;22.30
49943;BME280;36011;53.362;58.948;2023-06-10T12:31:55;96924.44;;;29.16;22.56
49943;BME280;36011;53.362;58.948;2023-06-10T12:35:03;96924.81;;;28.68;23.28
49943;BME280;36011;53.362;58.948;2023-06-10T12:38:05;96916.53;;;28.36;23.68
49943;BME280;36011;53.362;58.948;2023-06-10T12:41:16;96917.19;;;28.31;24.24
49943;BME280;36011;53.362;58.948;2023-06-10T12:44:38;96913.81;;;28.36;24.02
49943;BME280;36011;53.362;58.948;2023-06-10T12:47:45;96909.03;;;28.38;23.88
49943;BME280;36011;53.362;58.948;2023-06-10T12:50:54;96911.13;;;28.29;23.84
49943;BME280;36011;53.362;58.948;2023-06-10T12:53:56;96908.88;;;28.06;24.35
49943;BME280;36011;53.362;58.948;2023-06-10T12:56:57;96900.97;;;27.98;24.38
49943;BME280;36011;53.362;58.948;2023-06-10T13:00:01;96899.31;;;27.84;24.57
49943;BME280;36011;53.362;58.948;2023-06-10T13:03:09;96896.81;;;27.82;24.71
49943;BME280;36011;53.362;58.948;2023-06-10T13:06:11;96912.63;;;27.92;24.44
49943;BME280;36011;53.362;58.948;2023-06-10T13:09:16;96909.72;;;27.87;24.04
49943;BME280;36011;53.362;58.948;2023-06-10T13:12:17;96893.84;;;27.57;24.24
49943;BME280;36011;53.362;58.948;2023-06-10T13:15:18;96892.78;;;27.51;24.54
49943;BME280;36011;53.362;58.948;2023-06-10T13:18:22;96892.13;;;27.23;25.05
49943;BME280;36011;53.362;58.948;2023-06-10T13:21:26;96867.13;;;27.01;25.43
49943;BME280;36011;53.362;58.948;2023-06-10T13:24:28;96885.06;;;27.28;25.19
49943;BME280;36011;53.362;58.948;2023-06-10T13:27:33;96890.88;;;27.25;24.84
49943;BME280;36011;53.362;58.948;2023-06-10T13:30:38;96877.28;;;26.99;25.09
49943;BME280;36011;53.362;58.948;2023-06-10T13:33:42;96893.84;;;26.82;25.44
49943;BME280;36011;53.362;58.948;2023-06-10T13:36:49;96874.53;;;26.85;25.19
49943;BME280;36011;53.362;58.948;2023-06-10T13:39:51;96880.28;;;26.69;25.19
49943;BME280;36011;53.362;58.948;2023-06-10T13:42:52;96885.47;;;26.71;25.36
49943;BME280;36011;53.362;58.948;2023-06-10T13:45:57;96885.84;;;26.26;25.85
49943;BME280;36011;53.362;58.948;2023-06-10T13:49:01;96877.16;;;26.31;25.98
49943;BME280;36011;53.362;58.948;2023-06-10T13:52:03;96882.88;;;26.21;26.28
49943;BME280;36011;53.362;58.948;2023-06-10T13:55:05;96889.19;;;26.28;26.37
49943;BME280;36011;53.362;58.948;2023-06-10T13:58:09;96896.31;;;26.42;26.24
49943;BME280;36011;53.362;58.948;2023-06-10T14:01:12;96899.66;;;26.45;25.88
49943;BME280;36011;53.362;58.948;2023-06-10T14:04:19;96906.47;;;26.40;26.04
49943;BME280;36011;53.362;58.948;2023-06-10T14:07:22;96910.75;;;26.28;26.61
49943;BME280;36011;53.362;58.948;2023-06-10T14:10:29;96912.91;;;26.39;26.09
49943;BME280;36011;53.362;58.948;2023-06-10T14:13:33;96901.63;;;26.29;26.60
49943;BME280;36011;53.362;58.948;2023-06-10T14:16:34;96907.41;;;26.26;26.66
49943;BME280;36011;53.362;58.948;2023-06-10T14:19:39;96914.09;;;26.30;26.58
49943;BME280;36011;53.362;58.948;2023-06-10T14:22:43;96917.56;;;26.24;26.61
49943;BME280;36011;53.362;58.948;2023-06-10T14:25:50;96909.84;;;26.21;26.20
49943;BME280;36011;53.362;58.948;2023-06-10T14:28:54;96905.19;;;26.02;26.57
49943;BME280;36011;53.362;58.948;2023-06-10T14:31:55;96913.16;;;26.16;26.46
49943;BME280;36011;53.362;58.948;2023-06-10T14:35:02;96921.44;;;26.15;26.63
49943;BME280;36011;53.362;58.948;2023-06-10T14:38:10;96922.13;;;25.95;27.18
49943;BME280;36011;53.362;58.948;2023-06-10T14:41:14;96909.53;;;25.81;27.65
49943;BME280;36011;53.362;58.948;2023-06-10T14:44:17;96912.66;;;25.57;27.77
49943;BME280;36011;53.362;58.948;2023-06-10T14:47:19;96915.22;;;25.43;27.87
49943;BME280;36011;53.362;58.948;2023-06-10T14:50:24;96908.22;;;25.13;28.48
49943;BME280;36011;53.362;58.948;2023-06-10T14:53:28;96914.13;;;24.86;29.07
49943;BME280;36011;53.362;58.948;2023-06-10T14:56:29;96918.69;;;24.71;29.57
49943;BME280;36011;53.362;58.948;2023-06-10T14:59:34;96921.41;;;24.56;29.37
49943;BME280;36011;53.362;58.948;2023-06-10T15:02:39;96903.31;;;24.50;29.56
49943;BME280;36011;53.362;58.948;2023-06-10T15:05:42;96920.13;;;24.52;30.41
49943;BME280;36011;53.362;58.948;2023-06-10T15:08:43;96928.63;;;24.41;30.20
49943;BME280;36011;53.362;58.948;2023-06-10T15:11:44;96928.97;;;24.38;30.44
49943;BME280;36011;53.362;58.948;2023-06-10T15:14:46;96929.59;;;24.25;30.98
49943;BME280;36011;53.362;58.948;2023-06-10T15:17:47;96939.31;;;24.11;31.01
49943;BME280;36011;53.362;58.948;2023-06-10T15:20:51;96936.84;;;24.10;31.47
49943;BME280;36011;53.362;58.948;2023-06-10T15:23:52;96939.84;;;23.92;31.79
49943;BME280;36011;53.362;58.948;2023-06-10T15:26:56;96940.69;;;23.69;32.30
49943;BME280;36011;53.362;58.948;2023-06-10T15:30:02;96943.81;;;23.58;33.04
49943;BME280;36011;53.362;58.948;2023-06-10T15:33:08;96937.53;;;23.43;33.01
49943;BME280;36011;53.362;58.948;2023-06-10T15:36:12;96943.78;;;23.35;33.30
49943;BME280;36011;53.362;58.948;2023-06-10T15:39:21;96952.97;;;23.41;33.36
49943;BME280;36011;53.362;58.948;2023-06-10T15:42:25;96966.34;;;23.49;33.06
49943;BME280;36011;53.362;58.948;2023-06-10T15:45:29;96980.16;;;23.38;33.12
49943;BME280;36011;53.362;58.948;2023-06-10T15:48:33;97026.09;;;23.20;34.40
49943;BME280;36011;53.362;58.948;2023-06-10T15:51:34;97029.78;;;23.19;35.57
49943;BME280;36011;53.362;58.948;2023-06-10T15:54:38;97030.69;;;23.03;36.72
49943;BME280;36011;53.362;58.948;2023-06-10T15:57:44;97042.50;;;22.61;38.38
49943;BME280;36011;53.362;58.948;2023-06-10T16:00:53;97044.25;;;22.21;39.59
49943;BME280;36011;53.362;58.948;2023-06-10T16:04:01;97050.41;;;21.89;40.74
49943;BME280;36011;53.362;58.948;2023-06-10T16:07:03;97033.09;;;21.50;41.73
49943;BME280;36011;53.362;58.948;2023-06-10T16:10:04;97035.31;;;21.13;42.44